Airfield :
LOGIN :

Register | Disclaimer

   EN    FR    IT 

 










Legend :    VFR   Marginal VFR   IFR   Intensive IFR   Very Intensive IFR
Visi :
Ceiling :
>= 8 km
>= 3000ft
5 to 8 km
1000 to 3000 ft
1500m to 5 km
500 to 1000 ft
800 to 1500m
200 to 500 ft
< 800m
< 200 ft
Symbols :   Thunderstorms  Fog  Heavy snow  Heavy precipitations  Wind > 20 kt
SIGMETs :     Misc.  Thunderstorms  Icing  Turbulence  Mountain Waves  Volcanic Ashes







- Airport Elevation : 5600 ft
- IATA code : SMV


LSZS - Samedan

CURRENT METAR :
  • 122350Z AUTO 24001KT 0400 BR NCD M23/M26 Q1013 RESN

EXPIRED METARs :
  • 122320Z AUTO VRB02KT 1000 SN BCFG VV006 M22/M25 Q1013
  • 122250Z AUTO 18002KT 1000 SN BR VV006 M21/M23 Q1013
  • 122220Z AUTO 19001KT 2800 -SN BR BKN/// M21/M23 Q1013
  • 122150Z AUTO VRB02KT 0900 BR NCD M25/M28 Q1013 RESN
  • 122120Z AUTO 20002KT 2600 BR NCD M22/M25 Q1013 RESN

Expired Forecast.
ATIS : +41 81 834 93 24
No reported NOTAMs for that airfield.



MET'MAP, your aeronautical weather chart ! - Copyright ORBIFLY December 2007 - Disclaimer

ORBIFLY MET'MAP TEAM :

Programming & Development : Alexandra Zaïnal
Concept & Development : Baudouin d'Aumeries
Co-Development & Prog : Marc-Olivier Méhu
Technical & hardware support : Manuel Goepfert

Contact : metmap@orbifly.com




SOURCES & CREDITS :

   NOAA